Hovedside
METAR-TAF:

METAR-TAF

Lufthavner :

Kittilä, Finland

Kittilä lufthavn

breddegrad: 67-42N, lengdegrad: 024-51E, høyde over havet: 196 m

Gjeldene værobservasjon

Denne rapporten ble laget for 1 time og 9 minutter siden, klokken 09:50 UTC
Vind 11 kt fra Nord med vindkast opp mot 22 kt, skiftende mellom Nord-nordvest og Øst
Temperatur 2°C
Luftfuktighet 51%
Trykk 1005 hPa
Sikt 10 km eller mer
ingen skyer under 1500 m og ingen bygeskyer

METAR: EFKT 270950Z 36011G22KT 330V080 CAVOK 02/M07 Q1005

Tid: 13:59 (10:59 UTC)

Varsel

Denne rapporten ble laget for 2 timer og 23 minutter siden, klokken 08:36 UTC
Varsel gyldig fra 27. klokken 09 UTC til 27. klokken 18 UTC
Vind 12 kt fra Nord-nordøst
Sikt 10 km eller mer
Brutte skyer i en høyde av 3000 ft
Midlertidig
fra 27. klokken 09 UTC til 27. klokken 14 UTC
Vind 14 kt fra Nord-nordøst med vindkast opp mot 28 kt

TAF: EFKT 270836Z 2709/2718 02012KT 9999 BKN030 TEMPO 2709/2714 02014G28KT

Værobservasjoner og værvarsel for over 4000 flyplasser (METAR- og TAF-rapporter).

Tilgjengelige stasjoner er representert av de røde og gule prikkene på kartet.

Hold musepekeren over prikken for å se navnet på stasjonen.

Klikk så for å se værobservasjoner og -varsler.

For å forandre kartet kan du klikke på den grønne knappen med svart kryss for å zoome inn, på den grønne knappen med strek for å zoome ut, eller på de grønne pilene for å se tilstøtende kart.


METAR-TAF: